Time;durP1;ratioP1;P1;durP2;ratioP2;P2;SDS_P1;SDS_P2;PMS_P1;PMS_P2;Temp;Humidity;BMP_temperature;BMP_pressure;BME280_temperature;BME280_humidity;BME280_pressure;Samples;Min_cycle;Max_cycle;Signal;HPM_P1;HPM_P2
2022/06/14 00:03:07;;;;;;;1.70;1.60;;;;;;;;;;5092469;28;20023;-37
2022/06/14 00:05:33;;;;;;;3.25;1.70;;;;;;;;;;5074228;28;20020;-37
2022/06/14 00:07:58;;;;;;;1.70;1.60;;;;;;;;;;5091547;28;20028;-37
2022/06/14 00:10:25;;;;;;;3.78;1.60;;;;;;;;;;5092218;28;20024;-37
2022/06/14 00:12:50;;;;;;;8.02;1.73;;;;;;;;;;5091792;28;20027;-37
2022/06/14 00:15:16;;;;;;;2.03;1.77;;;;;;;;;;5091937;28;20489;-37
2022/06/14 00:17:41;;;;;;;1.90;1.60;;;;;;;;;;5073843;28;20018;-37
2022/06/14 00:20:07;;;;;;;3.17;1.80;;;;;;;;;;5073972;28;20044;-38
2022/06/14 00:22:33;;;;;;;2.13;1.50;;;;;;;;;;5091905;28;20015;-37
2022/06/14 00:24:58;;;;;;;4.70;2.17;;;;;;;;;;5092255;28;20047;-37
2022/06/14 00:27:24;;;;;;;6.72;1.95;;;;;;;;;;5073837;28;20062;-37
2022/06/14 00:29:49;;;;;;;3.08;1.60;;;;;;;;;;5073323;28;20386;-40
2022/06/14 00:32:14;;;;;;;2.88;1.75;;;;;;;;;;5073888;28;20024;-37
2022/06/14 00:34:40;;;;;;;3.90;1.67;;;;;;;;;;5091910;28;20445;-37
2022/06/14 00:37:10;;;;;;;2.92;1.85;;;;;;;;;;5091767;28;20016;-37
2022/06/14 00:39:35;;;;;;;9.20;1.95;;;;;;;;;;5091793;28;20027;-39
2022/06/14 00:42:01;;;;;;;5.78;2.30;;;;;;;;;;5073645;28;20115;-36
2022/06/14 00:44:27;;;;;;;2.22;1.80;;;;;;;;;;5073651;28;20016;-37
2022/06/14 00:46:59;;;;;;;4.63;2.03;;;;;;;;;;5073456;28;20020;-37
2022/06/14 00:49:37;;;;;;;4.13;2.08;;;;;;;;;;5092255;28;20031;-40
2022/06/14 00:52:05;;;;;;;3.50;1.90;;;;;;;;;;5091804;28;20059;-37
2022/06/14 00:54:34;;;;;;;2.92;2.00;;;;;;;;;;5073330;28;20339;-37
2022/06/14 00:57:04;;;;;;;4.75;1.90;;;;;;;;;;5091289;28;20379;-37
2022/06/14 00:59:34;;;;;;;5.25;2.30;;;;;;;;;;5073742;28;20043;-37
2022/06/14 01:02:35;;;;;;;3.78;1.90;;;;;;;;;;5073516;28;20478;-37
2022/06/14 01:05:01;;;;;;;3.42;1.92;;;;;;;;;;5030964;28;20032;-37
2022/06/14 01:07:27;;;;;;;3.05;2.22;;;;;;;;;;5073273;28;20020;-38
2022/06/14 01:09:55;;;;;;;7.55;2.10;;;;;;;;;;5091942;28;20020;-37
2022/06/14 01:12:22;;;;;;;5.85;2.45;;;;;;;;;;5073454;28;20024;-37
2022/06/14 01:15:08;;;;;;;3.30;2.22;;;;;;;;;;5091747;28;20047;-37
2022/06/14 01:17:39;;;;;;;10.20;2.30;;;;;;;;;;5091078;28;20027;-36
2022/06/14 01:20:04;;;;;;;3.97;2.35;;;;;;;;;;5072957;28;20085;-39
2022/06/14 01:22:31;;;;;;;4.28;2.40;;;;;;;;;;5075366;28;20152;-37
2022/06/14 01:24:57;;;;;;;7.13;2.20;;;;;;;;;;5075203;28;20029;-37
2022/06/14 01:27:24;;;;;;;5.45;2.33;;;;;;;;;;5075269;28;20021;-37
2022/06/14 01:29:53;;;;;;;4.55;2.28;;;;;;;;;;5074993;28;20016;-38
2022/06/14 01:32:19;;;;;;;;;;;;;;;;;;5075598;28;20103;-37
2022/06/14 01:34:51;;;;;;;8.57;2.53;;;;;;;;;;5072993;28;20011;-37
2022/06/14 01:37:17;;;;;;;4.63;2.50;;;;;;;;;;5073385;28;20273;-38
2022/06/14 01:39:42;;;;;;;4.78;2.55;;;;;;;;;;5054746;28;20103;-37
2022/06/14 01:42:21;;;;;;;5.05;2.40;;;;;;;;;;5054789;28;20020;-37
2022/06/14 01:45:05;;;;;;;5.57;3.10;;;;;;;;;;5053340;28;20139;-37
2022/06/14 01:47:54;;;;;;;3.78;2.78;;;;;;;;;;5054868;28;20531;-37
2022/06/14 01:53:09;;;;;;;6.15;3.45;;;;;;;;;;5054802;28;20087;-36
2022/06/14 01:55:40;;;;;;;12.05;2.85;;;;;;;;;;5054299;28;20094;-38
2022/06/14 01:58:13;;;;;;;3.28;2.25;;;;;;;;;;5053592;28;20039;-37
2022/06/14 02:00:48;;;;;;;4.97;2.63;;;;;;;;;;5054320;28;20028;-37
2022/06/14 02:06:18;;;;;;;3.78;2.60;;;;;;;;;;5054504;28;20478;-37
2022/06/14 02:08:49;;;;;;;4.22;2.67;;;;;;;;;;5052998;28;20692;-36
2022/06/14 02:11:18;;;;;;;5.57;2.70;;;;;;;;;;5053224;28;20021;-40
2022/06/14 02:13:46;;;;;;;5.97;2.78;;;;;;;;;;5054425;28;20411;-36
2022/06/14 02:16:30;;;;;;;6.72;2.40;;;;;;;;;;5053033;28;20491;-37
2022/06/14 02:18:55;;;;;;;5.05;2.58;;;;;;;;;;5063016;28;20052;-36
2022/06/14 02:21:36;;;;;;;4.18;2.58;;;;;;;;;;5072951;28;20029;-38
2022/06/14 02:24:09;;;;;;;6.25;2.58;;;;;;;;;;5074510;28;20021;-36
2022/06/14 02:26:39;;;;;;;5.38;2.50;;;;;;;;;;5073766;28;20060;-38
2022/06/14 02:29:16;;;;;;;2.95;2.65;;;;;;;;;;5055513;28;20085;-36
2022/06/14 02:31:49;;;;;;;5.20;2.70;;;;;;;;;;5071971;28;20021;-37
2022/06/14 02:34:17;;;;;;;8.65;2.55;;;;;;;;;;5056002;28;20044;-38
2022/06/14 02:37:09;;;;;;;5.18;3.17;;;;;;;;;;5073561;28;20522;-36
2022/06/14 02:39:36;;;;;;;5.43;2.72;;;;;;;;;;5073470;28;20059;-40
2022/06/14 02:42:07;;;;;;;2.90;2.45;;;;;;;;;;5073732;28;20238;-36
2022/06/14 02:44:36;;;;;;;8.95;2.90;;;;;;;;;;5073348;28;20024;-37
2022/06/14 02:47:01;;;;;;;5.57;3.28;;;;;;;;;;5073390;28;20017;-36
2022/06/14 02:49:32;;;;;;;4.78;3.17;;;;;;;;;;5071949;28;20490;-37
2022/06/14 02:52:14;;;;;;;6.68;3.10;;;;;;;;;;5055089;28;20162;-38
2022/06/14 02:54:51;;;;;;;4.10;2.72;;;;;;;;;;5073083;28;20494;-37
2022/06/14 02:57:38;;;;;;;5.10;3.55;;;;;;;;;;5073155;28;20036;-36
2022/06/14 03:00:07;;;;;;;5.70;3.20;;;;;;;;;;5073148;28;20024;-38
2022/06/14 03:02:52;;;;;;;7.00;3.30;;;;;;;;;;5073108;28;20490;-37
2022/06/14 03:05:20;;;;;;;7.53;3.85;;;;;;;;;;5071179;28;20182;-39
2022/06/14 03:07:56;;;;;;;6.10;3.38;;;;;;;;;;5073123;28;20025;-36
2022/06/14 03:10:23;;;;;;;5.30;3.28;;;;;;;;;;5072851;28;20028;-36
2022/06/14 03:13:04;;;;;;;6.28;3.55;;;;;;;;;;5072773;28;20425;-37
2022/06/14 03:15:41;;;;;;;8.32;3.33;;;;;;;;;;5071624;28;20484;-36
2022/06/14 03:18:09;;;;;;;6.25;3.63;;;;;;;;;;5071387;28;20379;-38
2022/06/14 03:20:44;;;;;;;7.07;2.88;;;;;;;;;;5072992;28;20036;-37
2022/06/14 03:23:12;;;;;;;5.55;3.20;;;;;;;;;;5072291;28;20376;-37
2022/06/14 03:25:40;;;;;;;5.70;3.25;;;;;;;;;;5071315;28;20081;-36
2022/06/14 03:28:18;;;;;;;8.52;3.33;;;;;;;;;;5072599;28;20421;-36
2022/06/14 03:30:46;;;;;;;7.43;3.75;;;;;;;;;;5072486;28;20032;-37
2022/06/14 03:33:18;;;;;;;6.85;3.72;;;;;;;;;;5072499;28;20416;-36
2022/06/14 03:35:47;;;;;;;6.88;3.97;;;;;;;;;;5070965;28;20033;-37
2022/06/14 03:38:21;;;;;;;8.75;3.65;;;;;;;;;;5082012;28;20008;-36
2022/06/14 03:40:47;;;;;;;6.38;3.58;;;;;;;;;;5092546;28;20097;-37
2022/06/14 03:43:13;;;;;;;5.38;3.05;;;;;;;;;;5092831;28;20058;-36
2022/06/14 03:45:58;;;;;;;7.30;3.38;;;;;;;;;;5092527;28;20027;-37
2022/06/14 03:48:24;;;;;;;5.65;3.20;;;;;;;;;;5073918;28;20020;-37
2022/06/14 03:50:55;;;;;;;5.45;2.60;;;;;;;;;;5092754;28;20016;-38
2022/06/14 03:53:29;;;;;;;7.55;3.30;;;;;;;;;;5074231;28;20020;-37
2022/06/14 03:55:55;;;;;;;9.25;4.10;;;;;;;;;;5074343;28;20497;-39
2022/06/14 03:58:29;;;;;;;6.18;2.88;;;;;;;;;;5073987;28;20055;-37
2022/06/14 04:01:03;;;;;;;7.60;3.65;;;;;;;;;;5074005;28;20375;-40
2022/06/14 04:03:34;;;;;;;7.88;3.38;;;;;;;;;;5092348;28;20490;-37
2022/06/14 04:06:18;;;;;;;6.63;2.78;;;;;;;;;;5092369;28;20027;-38
2022/06/14 04:09:08;;;;;;;6.05;2.85;;;;;;;;;;5092317;28;20046;-37
2022/06/14 04:11:51;;;;;;;4.75;3.20;;;;;;;;;;5091882;28;20060;-37
2022/06/14 04:14:16;;;;;;;3.95;2.53;;;;;;;;;;5073629;28;20032;-36
2022/06/14 04:16:48;;;;;;;6.88;2.85;;;;;;;;;;5073752;28;20022;-39
2022/06/14 04:19:20;;;;;;;8.32;2.70;;;;;;;;;;5091803;28;20047;-37
2022/06/14 04:21:55;;;;;;;5.78;2.72;;;;;;;;;;5073653;28;20030;-37
2022/06/14 04:24:32;;;;;;;7.72;3.10;;;;;;;;;;5074118;28;20032;-37
2022/06/14 04:26:57;;;;;;;6.03;2.83;;;;;;;;;;5091775;28;20027;-37
2022/06/14 04:29:32;;;;;;;5.10;2.30;;;;;;;;;;5091994;28;20016;-36
2022/06/14 04:32:03;;;;;;;5.15;2.30;;;;;;;;;;5091658;28;20414;-37
2022/06/14 04:34:41;;;;;;;4.80;2.28;;;;;;;;;;5073395;28;20316;-37
2022/06/14 04:37:22;;;;;;;3.95;2.40;;;;;;;;;;5091522;28;20107;-37
2022/06/14 04:40:10;;;;;;;5.10;2.55;;;;;;;;;;5053640;28;20132;-37
2022/06/14 04:42:39;;;;;;;3.72;2.65;;;;;;;;;;5045210;28;20119;-39
2022/06/14 04:45:07;;;;;;;5.30;2.45;;;;;;;;;;5071694;28;20327;-36
2022/06/14 04:47:35;;;;;;;3.58;1.85;;;;;;;;;;5071560;28;20035;-37
2022/06/14 04:50:05;;;;;;;4.38;2.05;;;;;;;;;;5071685;28;20052;-37
2022/06/14 04:52:36;;;;;;;6.38;2.10;;;;;;;;;;5053698;28;20055;-37
2022/06/14 04:55:07;;;;;;;19.17;2.80;;;;;;;;;;5057002;28;20068;-37
2022/06/14 04:57:44;;;;;;;3.53;2.33;;;;;;;;;;5057459;28;20028;-36
2022/06/14 05:00:11;;;;;;;4.80;1.85;;;;;;;;;;5075659;28;20021;-36
2022/06/14 05:02:38;;;;;;;7.15;2.80;;;;;;;;;;5057154;28;20024;-38
2022/06/14 05:05:14;;;;;;;2.58;1.50;;;;;;;;;;5075534;28;20035;-37
2022/06/14 05:07:43;;;;;;;5.93;1.88;;;;;;;;;;5075244;28;20024;-37
2022/06/14 05:10:15;;;;;;;9.80;2.67;;;;;;;;;;5075366;28;20051;-38
2022/06/14 05:12:43;;;;;;;5.65;2.22;;;;;;;;;;5057104;28;20036;-36
2022/06/14 05:15:15;;;;;;;6.57;2.47;;;;;;;;;;5075401;28;20028;-36
2022/06/14 05:17:44;;;;;;;5.55;1.95;;;;;;;;;;5075345;28;20257;-37
2022/06/14 05:20:10;;;;;;;2.60;1.83;;;;;;;;;;5075449;28;20047;-38
2022/06/14 05:22:54;;;;;;;3.67;1.70;;;;;;;;;;5073611;28;20036;-38
2022/06/14 05:25:20;;;;;;;2.67;1.63;;;;;;;;;;5074976;28;20036;-37
2022/06/14 05:27:48;;;;;;;3.83;1.83;;;;;;;;;;5075094;28;20016;-37
2022/06/14 05:30:25;;;;;;;7.68;2.25;;;;;;;;;;5075347;28;20028;-37
2022/06/14 05:33:04;;;;;;;2.83;1.85;;;;;;;;;;5074440;28;20028;-37
2022/06/14 05:35:29;;;;;;;3.63;1.45;;;;;;;;;;5073163;28;20032;-38
2022/06/14 05:37:55;;;;;;;10.48;1.90;;;;;;;;;;5082731;28;20035;-38
2022/06/14 05:40:49;;;;;;;5.63;1.92;;;;;;;;;;5084684;28;20016;-37
2022/06/14 05:43:18;;;;;;;6.05;2.08;;;;;;;;;;5065942;28;20093;-39
2022/06/14 05:45:47;;;;;;;5.80;1.60;;;;;;;;;;5072380;28;20177;-38
2022/06/14 05:48:19;;;;;;;5.25;1.88;;;;;;;;;;5093395;28;20016;-37
2022/06/14 05:50:47;;;;;;;4.53;1.83;;;;;;;;;;5093623;28;20027;-37
2022/06/14 05:53:36;;;;;;;3.40;1.80;;;;;;;;;;5093003;28;20023;-37
2022/06/14 05:56:06;;;;;;;5.35;2.30;;;;;;;;;;5063523;28;20074;-37
2022/06/14 05:58:50;;;;;;;4.20;1.63;;;;;;;;;;5066395;28;20027;-37
2022/06/14 06:01:18;;;;;;;6.30;1.58;;;;;;;;;;5084757;28;20081;-40
2022/06/14 06:03:52;;;;;;;5.33;1.60;;;;;;;;;;5091264;28;20124;-38
2022/06/14 06:06:21;;;;;;;3.60;2.05;;;;;;;;;;5087703;28;20031;-42
2022/06/14 06:08:49;;;;;;;5.68;1.73;;;;;;;;;;5090711;28;20546;-38
2022/06/14 06:11:33;;;;;;;1.95;1.40;;;;;;;;;;5080674;28;20424;-39
2022/06/14 06:14:06;;;;;;;4.60;1.88;;;;;;;;;;5083211;28;20036;-41
2022/06/14 06:16:37;;;;;;;6.05;1.63;;;;;;;;;;5090168;28;20539;-38
2022/06/14 06:19:07;;;;;;;5.53;1.70;;;;;;;;;;5075994;28;20614;-39
2022/06/14 06:21:33;;;;;;;6.05;1.75;;;;;;;;;;5091853;28;20386;-38
2022/06/14 06:24:02;;;;;;;5.15;1.80;;;;;;;;;;5080713;28;20031;-39
2022/06/14 06:26:30;;;;;;;6.47;1.70;;;;;;;;;;5087252;28;21716;-38
2022/06/14 06:28:58;;;;;;;2.75;1.50;;;;;;;;;;5091421;28;20012;-38
2022/06/14 06:31:26;;;;;;;5.67;1.77;;;;;;;;;;5093003;28;20762;-39
2022/06/14 06:33:53;;;;;;;5.72;1.67;;;;;;;;;;5090470;28;20295;-37
2022/06/14 06:36:30;;;;;;;5.10;2.03;;;;;;;;;;5090666;28;20028;-37
2022/06/14 06:39:05;;;;;;;5.15;1.73;;;;;;;;;;5082733;28;20031;-40
2022/06/14 06:41:55;;;;;;;7.82;2.03;;;;;;;;;;5081819;28;20031;-38
2022/06/14 06:44:20;;;;;;;6.20;2.03;;;;;;;;;;5083544;28;20024;-39
2022/06/14 06:46:49;;;;;;;4.53;1.92;;;;;;;;;;5087188;28;20028;-39
2022/06/14 06:49:16;;;;;;;4.72;1.65;;;;;;;;;;5089464;28;20049;-38
2022/06/14 06:51:44;;;;;;;8.63;3.03;;;;;;;;;;5085497;28;20020;-38
2022/06/14 06:54:19;;;;;;;6.00;2.72;;;;;;;;;;5089838;28;20036;-38
2022/06/14 06:56:46;;;;;;;4.35;2.15;;;;;;;;;;5084970;28;20383;-38
2022/06/14 06:59:21;;;;;;;30.48;3.55;;;;;;;;;;5082263;28;20380;-38
2022/06/14 07:01:48;;;;;;;12.57;2.75;;;;;;;;;;5082193;28;20016;-39
2022/06/14 07:04:13;;;;;;;4.72;1.75;;;;;;;;;;5093534;28;20028;-38
2022/06/14 07:06:49;;;;;;;38.63;5.72;;;;;;;;;;5058902;28;20036;-38
2022/06/14 07:09:18;;;;;;;27.77;3.63;;;;;;;;;;5072618;28;20036;-40
2022/06/14 07:11:56;;;;;;;21.92;4.22;;;;;;;;;;5054572;28;20028;-38
2022/06/14 07:14:24;;;;;;;4.28;1.88;;;;;;;;;;5073270;28;20036;-38
2022/06/14 07:16:53;;;;;;;6.03;1.73;;;;;;;;;;5072009;28;20017;-39
2022/06/14 07:19:44;;;;;;;5.22;1.38;;;;;;;;;;5091622;28;20427;-42
2022/06/14 07:22:13;;;;;;;5.18;1.70;;;;;;;;;;5081535;28;20060;-41
2022/06/14 07:24:57;;;;;;;13.20;4.45;;;;;;;;;;5088541;28;20056;-38
2022/06/14 07:27:25;;;;;;;6.63;1.70;;;;;;;;;;5079830;28;20025;-37
2022/06/14 07:30:17;;;;;;;6.38;1.98;;;;;;;;;;5067760;28;20016;-37
2022/06/14 07:33:01;;;;;;;3.17;1.80;;;;;;;;;;5083221;28;20044;-37
2022/06/14 07:35:30;;;;;;;5.28;1.50;;;;;;;;;;5086441;28;20044;-38
2022/06/14 07:38:11;;;;;;;2.60;1.67;;;;;;;;;;5082955;28;20020;-38
2022/06/14 07:40:44;;;;;;;5.38;1.73;;;;;;;;;;5088178;28;20032;-38
2022/06/14 07:43:11;;;;;;;7.32;1.40;;;;;;;;;;5088172;28;20015;-38
2022/06/14 07:45:45;;;;;;;4.97;1.50;;;;;;;;;;5088292;28;20057;-38
2022/06/14 07:48:22;;;;;;;3.75;1.52;;;;;;;;;;5088960;28;20401;-39
2022/06/14 07:50:47;;;;;;;5.18;1.85;;;;;;;;;;5079932;28;20047;-39
2022/06/14 07:53:19;;;;;;;6.28;1.65;;;;;;;;;;5085621;28;20055;-38
2022/06/14 07:55:54;;;;;;;4.30;1.50;;;;;;;;;;5070619;28;20039;-39
2022/06/14 07:58:30;;;;;;;5.60;1.42;;;;;;;;;;5075011;28;20444;-39
2022/06/14 08:01:09;;;;;;;4.72;1.23;;;;;;;;;;5052881;28;20048;-39
2022/06/14 08:03:36;;;;;;;;;;;;;;;;;;5073158;28;20552;-38
2022/06/14 08:06:03;;;;;;;3.65;1.40;;;;;;;;;;5081259;28;19915;-38
2022/06/14 08:08:31;;;;;;;4.82;1.38;;;;;;;;;;5068834;28;20016;-39
2022/06/14 08:11:00;;;;;;;6.65;1.45;;;;;;;;;;5070630;28;20036;-40
2022/06/14 08:13:28;;;;;;;8.55;1.92;;;;;;;;;;5071091;28;20028;-39
2022/06/14 08:15:57;;;;;;;8.10;1.73;;;;;;;;;;5090025;28;20020;-38
2022/06/14 08:18:22;;;;;;;;;;;;;;;;;;5084830;28;20136;-39
2022/06/14 08:20:50;;;;;;;4.17;1.40;;;;;;;;;;5088658;28;20333;-39
2022/06/14 08:23:18;;;;;;;4.45;1.42;;;;;;;;;;5083017;28;20110;-39
2022/06/14 08:25:44;;;;;;;8.30;1.92;;;;;;;;;;5063951;28;20024;-39
2022/06/14 08:28:10;;;;;;;5.05;1.40;;;;;;;;;;5070514;28;20024;-39
2022/06/14 08:30:38;;;;;;;6.20;1.60;;;;;;;;;;5085468;28;20146;-38
2022/06/14 08:33:12;;;;;;;9.35;1.90;;;;;;;;;;5090098;28;20290;-38
2022/06/14 08:35:41;;;;;;;4.18;1.60;;;;;;;;;;5071840;28;20032;-38
2022/06/14 08:38:06;;;;;;;;;;;;;;;;;;5082660;28;20057;-41
2022/06/14 08:40:50;;;;;;;8.30;1.90;;;;;;;;;;5052698;28;19904;-39
2022/06/14 08:43:19;;;;;;;5.05;1.70;;;;;;;;;;5070396;28;20363;-38
2022/06/14 08:45:57;;;;;;;3.80;1.70;;;;;;;;;;5080352;28;20115;-39
2022/06/14 08:48:42;;;;;;;6.32;1.60;;;;;;;;;;5089519;28;20150;-39
2022/06/14 08:51:11;;;;;;;6.35;2.00;;;;;;;;;;5083662;28;20112;-38
2022/06/14 08:53:36;;;;;;;5.85;2.00;;;;;;;;;;5076411;28;20023;-38
2022/06/14 08:56:10;;;;;;;5.45;1.52;;;;;;;;;;5068403;28;20050;-38
2022/06/14 08:59:08;;;;;;;5.68;1.40;;;;;;;;;;5075676;28;20063;-45
2022/06/14 09:01:33;;;;;;;4.55;1.65;;;;;;;;;;5053201;28;20032;-38
2022/06/14 09:04:17;;;;;;;5.67;1.40;;;;;;;;;;5086904;28;20019;-39
2022/06/14 09:06:48;;;;;;;4.95;1.85;;;;;;;;;;5079379;28;20069;-38
2022/06/14 09:09:32;;;;;;;4.85;1.75;;;;;;;;;;5079543;28;20032;-38
2022/06/14 09:12:07;;;;;;;3.03;1.48;;;;;;;;;;5074548;28;20113;-40
2022/06/14 09:14:45;;;;;;;5.65;1.40;;;;;;;;;;5086032;28;20040;-44
2022/06/14 09:17:28;;;;;;;2.55;1.30;;;;;;;;;;5076068;28;20034;-41
2022/06/14 09:20:05;;;;;;;4.68;1.50;;;;;;;;;;5086665;28;20127;-38
2022/06/14 09:22:41;;;;;;;3.05;1.63;;;;;;;;;;5082497;28;20040;-39
2022/06/14 09:25:32;;;;;;;2.53;1.52;;;;;;;;;;5061617;28;20391;-38
2022/06/14 09:27:57;;;;;;;9.32;1.50;;;;;;;;;;5073130;28;20048;-40
2022/06/14 09:30:41;;;;;;;5.68;1.45;;;;;;;;;;5087556;28;20152;-38
2022/06/14 09:33:17;;;;;;;4.22;1.58;;;;;;;;;;5087288;28;20031;-39
2022/06/14 09:35:42;;;;;;;5.55;1.52;;;;;;;;;;5081334;28;20040;-39
2022/06/14 09:38:23;;;;;;;5.75;1.50;;;;;;;;;;5073121;28;20021;-39
2022/06/14 09:41:14;;;;;;;2.95;1.05;;;;;;;;;;5074427;28;20032;-41
2022/06/14 09:43:48;;;;;;;7.28;6.00;;;;;;;;;;5046239;28;20075;-41
2022/06/14 09:46:32;;;;;;;10.00;2.25;;;;;;;;;;5089841;28;20114;-39
2022/06/14 09:48:57;;;;;;;6.22;1.90;;;;;;;;;;5091024;28;20024;-38
2022/06/14 09:51:32;;;;;;;4.47;1.55;;;;;;;;;;5091597;28;20103;-38
2022/06/14 09:54:17;;;;;;;10.27;2.33;;;;;;;;;;5088534;28;20078;-38
2022/06/14 09:56:45;;;;;;;3.05;1.42;;;;;;;;;;5080091;28;20107;-38
2022/06/14 09:59:29;;;;;;;2.42;1.40;;;;;;;;;;5089077;28;20020;-38
2022/06/14 10:01:55;;;;;;;7.10;1.40;;;;;;;;;;5078110;28;20028;-38
2022/06/14 10:04:49;;;;;;;4.23;2.07;;;;;;;;;;5077583;28;20026;-38
2022/06/14 10:07:14;;;;;;;4.55;1.67;;;;;;;;;;5091302;28;20280;-39
2022/06/14 10:10:00;;;;;;;7.90;1.60;;;;;;;;;;5093862;28;20027;-40
2022/06/14 10:12:51;;;;;;;5.05;1.63;;;;;;;;;;5084660;28;20296;-40
2022/06/14 10:15:20;;;;;;;2.78;1.50;;;;;;;;;;5090506;28;20032;-43
2022/06/14 10:18:04;;;;;;;6.85;1.70;;;;;;;;;;5092767;28;20024;-38
2022/06/14 10:20:35;;;;;;;5.07;1.50;;;;;;;;;;5072851;28;20060;-42
2022/06/14 10:23:18;;;;;;;3.78;1.40;;;;;;;;;;5072714;28;20379;-42
2022/06/14 10:28:44;;;;;;;2.83;1.20;;;;;;;;;;5087247;28;20402;-38
2022/06/14 10:31:13;;;;;;;4.18;1.55;;;;;;;;;;5093096;28;20023;-37
2022/06/14 10:33:43;;;;;;;6.63;1.58;;;;;;;;;;5092768;28;20016;-42
2022/06/14 10:36:17;;;;;;;5.70;2.20;;;;;;;;;;5090228;28;20471;-41
2022/06/14 10:38:52;;;;;;;6.30;1.85;;;;;;;;;;5089678;28;20038;-39
2022/06/14 10:41:24;;;;;;;9.10;1.63;;;;;;;;;;5091709;28;20023;-40
2022/06/14 10:43:55;;;;;;;5.88;1.40;;;;;;;;;;5092346;28;20530;-41
2022/06/14 10:46:28;;;;;;;9.80;1.90;;;;;;;;;;5090603;28;20023;-38
2022/06/14 10:49:12;;;;;;;5.30;1.65;;;;;;;;;;5068078;28;20800;-40
2022/06/14 10:51:46;;;;;;;2.50;1.50;;;;;;;;;;5074300;28;20112;-40
2022/06/14 10:54:20;;;;;;;6.00;1.75;;;;;;;;;;5077333;28;20130;-41
2022/06/14 10:57:04;;;;;;;7.80;1.80;;;;;;;;;;5090672;28;20035;-39
2022/06/14 10:59:42;;;;;;;6.60;2.10;;;;;;;;;;5089519;28;20028;-38
2022/06/14 11:02:16;;;;;;;4.32;1.60;;;;;;;;;;5090066;28;20512;-38
2022/06/14 11:04:57;;;;;;;5.95;1.65;;;;;;;;;;5076829;28;20030;-39
2022/06/14 11:07:26;;;;;;;4.95;2.20;;;;;;;;;;5084517;28;20031;-38
2022/06/14 11:10:03;;;;;;;7.97;1.88;;;;;;;;;;5076948;28;20024;-39
2022/06/14 11:12:29;;;;;;;7.88;2.40;;;;;;;;;;5072494;28;20157;-38
2022/06/14 11:15:06;;;;;;;5.30;1.67;;;;;;;;;;5073038;28;20155;-39
2022/06/14 11:17:34;;;;;;;2.47;1.27;;;;;;;;;;5080282;28;20028;-38
2022/06/14 11:20:00;;;;;;;6.40;1.90;;;;;;;;;;5081042;28;20059;-38
2022/06/14 11:22:43;;;;;;;6.10;1.80;;;;;;;;;;5083540;28;20028;-42
2022/06/14 11:25:15;;;;;;;4.43;1.70;;;;;;;;;;5088793;28;20019;-39
2022/06/14 11:27:40;;;;;;;4.43;1.85;;;;;;;;;;5091433;28;20020;-38
2022/06/14 11:30:25;;;;;;;10.90;2.07;;;;;;;;;;5092266;28;20109;-41
2022/06/14 11:33:09;;;;;;;6.32;1.67;;;;;;;;;;5091324;28;20260;-39
2022/06/14 11:36:06;;;;;;;3.13;1.30;;;;;;;;;;5085048;28;20032;-38
2022/06/14 11:38:50;;;;;;;4.45;1.30;;;;;;;;;;5016451;28;20040;-41
2022/06/14 11:41:18;;;;;;;7.03;1.42;;;;;;;;;;5076047;28;20070;-40
2022/06/14 11:43:44;;;;;;;;;;;;;;;;;;5088029;28;20027;-38
2022/06/14 11:46:15;;;;;;;7.73;1.60;;;;;;;;;;5088400;28;19908;-39
2022/06/14 11:48:52;;;;;;;6.93;1.40;;;;;;;;;;5067048;28;20115;-41
2022/06/14 11:51:23;;;;;;;7.18;1.73;;;;;;;;;;5071700;28;20073;-41
2022/06/14 11:54:06;;;;;;;3.72;1.50;;;;;;;;;;5089737;28;20027;-40
2022/06/14 11:56:49;;;;;;;12.15;2.75;;;;;;;;;;5081748;28;20497;-41
2022/06/14 11:59:24;;;;;;;4.72;1.63;;;;;;;;;;5082150;28;20171;-39
2022/06/14 12:02:01;;;;;;;2.92;1.42;;;;;;;;;;5073566;28;20074;-39
2022/06/14 12:04:52;;;;;;;2.92;1.40;;;;;;;;;;5075896;28;20445;-41
2022/06/14 12:07:17;;;;;;;3.83;1.35;;;;;;;;;;5088279;28;20055;-47
2022/06/14 12:09:42;;;;;;;4.68;1.45;;;;;;;;;;5084604;28;20425;-39
2022/06/14 12:12:15;;;;;;;2.27;1.20;;;;;;;;;;5088756;28;20024;-47
2022/06/14 12:14:46;;;;;;;6.43;1.73;;;;;;;;;;5083523;28;20034;-38
2022/06/14 12:17:20;;;;;;;3.70;1.30;;;;;;;;;;5086902;28;20024;-40
2022/06/14 12:19:50;;;;;;;2.78;1.33;;;;;;;;;;5089521;28;20060;-39
2022/06/14 12:22:28;;;;;;;2.45;1.40;;;;;;;;;;5079004;28;20062;-39
2022/06/14 12:27:45;;;;;;;4.75;1.42;;;;;;;;;;5074927;28;20035;-39
2022/06/14 12:30:12;;;;;;;4.78;1.23;;;;;;;;;;5088761;28;20387;-44
2022/06/14 12:32:48;;;;;;;2.83;1.25;;;;;;;;;;5081195;28;20102;-38
2022/06/14 12:35:19;;;;;;;4.05;1.25;;;;;;;;;;5084944;28;20040;-38
2022/06/14 12:37:45;;;;;;;2.90;1.17;;;;;;;;;;5082234;28;20038;-38
2022/06/14 12:40:19;;;;;;;3.13;1.38;;;;;;;;;;5077454;28;20028;-42
2022/06/14 12:42:50;;;;;;;3.92;1.45;;;;;;;;;;5084072;28;20139;-39
2022/06/14 12:45:20;;;;;;;3.72;1.50;;;;;;;;;;5063707;28;20445;-42
2022/06/14 12:47:45;;;;;;;5.53;1.48;;;;;;;;;;5083944;28;20082;-39
2022/06/14 12:50:20;;;;;;;2.13;1.35;;;;;;;;;;5085340;28;20024;-42
2022/06/14 12:52:49;;;;;;;6.15;1.80;;;;;;;;;;5071167;28;20020;-39
2022/06/14 12:55:34;;;;;;;4.38;1.42;;;;;;;;;;5081364;28;20039;-38
2022/06/14 12:58:06;;;;;;;10.98;1.70;;;;;;;;;;5084084;28;20028;-38
2022/06/14 13:00:52;;;;;;;9.07;1.52;;;;;;;;;;5077358;28;20036;-43
2022/06/14 13:03:32;;;;;;;6.00;1.73;;;;;;;;;;5086666;28;20028;-41
2022/06/14 13:06:16;;;;;;;9.40;2.10;;;;;;;;;;5088583;28;20023;-38
2022/06/14 13:08:41;;;;;;;4.90;1.70;;;;;;;;;;5068403;28;20024;-41
2022/06/14 13:11:14;;;;;;;2.20;1.53;;;;;;;;;;5088980;28;20085;-40
2022/06/14 13:13:45;;;;;;;3.92;1.55;;;;;;;;;;5071432;28;20273;-37
2022/06/14 13:16:34;;;;;;;7.93;1.60;;;;;;;;;;5080841;28;20059;-39
2022/06/14 13:19:06;;;;;;;3.42;1.52;;;;;;;;;;5084650;28;20055;-40
2022/06/14 13:21:40;;;;;;;2.67;1.77;;;;;;;;;;5093970;28;20131;-39
2022/06/14 13:24:25;;;;;;;6.35;1.70;;;;;;;;;;5094709;28;20035;-38
2022/06/14 13:27:19;;;;;;;3.85;1.25;;;;;;;;;;5094309;28;20024;-38
2022/06/14 13:29:48;;;;;;;2.97;1.48;;;;;;;;;;5094280;28;20028;-38
2022/06/14 13:32:25;;;;;;;3.22;1.67;;;;;;;;;;5094173;28;20030;-37
2022/06/14 13:35:08;;;;;;;2.78;1.60;;;;;;;;;;5076212;28;20047;-37
2022/06/14 13:38:00;;;;;;;3.05;1.38;;;;;;;;;;5088894;28;20024;-38
2022/06/14 13:40:28;;;;;;;6.07;1.75;;;;;;;;;;5081754;28;20036;-37
2022/06/14 13:42:57;;;;;;;4.70;1.70;;;;;;;;;;5094035;28;20016;-46
2022/06/14 13:45:25;;;;;;;4.70;1.65;;;;;;;;;;5094101;28;20031;-38
2022/06/14 13:48:14;;;;;;;6.47;1.40;;;;;;;;;;5092759;28;20024;-39
2022/06/14 13:50:49;;;;;;;3.70;1.60;;;;;;;;;;5093178;28;20773;-38
2022/06/14 13:53:23;;;;;;;2.47;1.50;;;;;;;;;;5088945;28;20064;-38
2022/06/14 13:55:55;;;;;;;5.28;1.98;;;;;;;;;;5091530;28;20040;-39
2022/06/14 13:58:25;;;;;;;2.75;1.50;;;;;;;;;;5083657;28;20376;-38
2022/06/14 14:00:56;;;;;;;3.22;1.73;;;;;;;;;;5067838;28;20052;-38
2022/06/14 14:03:48;;;;;;;2.70;1.20;;;;;;;;;;5076410;28;20108;-39
2022/06/14 14:06:25;;;;;;;4.20;1.70;;;;;;;;;;5036180;28;20036;-37
2022/06/14 14:08:56;;;;;;;3.70;1.67;;;;;;;;;;5085983;28;20024;-38
2022/06/14 14:11:44;;;;;;;5.20;1.35;;;;;;;;;;5092905;28;20391;-39
2022/06/14 14:14:28;;;;;;;6.53;1.52;;;;;;;;;;5063007;28;20085;-39
2022/06/14 14:17:06;;;;;;;6.10;1.77;;;;;;;;;;5073255;28;20037;-38
2022/06/14 14:19:50;;;;;;;2.95;1.55;;;;;;;;;;5086446;28;20052;-39
2022/06/14 14:22:16;;;;;;;6.40;1.95;;;;;;;;;;5085901;28;20105;-41
2022/06/14 14:24:55;;;;;;;4.30;1.77;;;;;;;;;;5076387;28;20467;-38
2022/06/14 14:27:25;;;;;;;6.47;2.10;;;;;;;;;;5088358;28;20034;-38
2022/06/14 14:29:50;;;;;;;8.75;1.88;;;;;;;;;;5085485;28;20066;-37
2022/06/14 14:32:38;;;;;;;11.75;1.83;;;;;;;;;;5066062;28;20051;-46
2022/06/14 14:35:07;;;;;;;8.10;2.13;;;;;;;;;;5093326;28;20031;-39
2022/06/14 14:37:35;;;;;;;4.35;1.88;;;;;;;;;;5092429;28;20016;-37
2022/06/14 14:40:24;;;;;;;5.82;2.05;;;;;;;;;;5093462;28;20020;-38
2022/06/14 14:42:52;;;;;;;3.53;1.95;;;;;;;;;;5064351;28;20118;-38
2022/06/14 14:45:21;;;;;;;4.35;1.40;;;;;;;;;;5093661;28;20099;-39
2022/06/14 14:47:58;;;;;;;5.25;2.30;;;;;;;;;;5093767;28;20383;-37
2022/06/14 14:50:35;;;;;;;4.38;1.50;;;;;;;;;;5093737;28;20028;-38
2022/06/14 14:53:15;;;;;;;4.25;1.70;;;;;;;;;;5093690;28;20031;-38
2022/06/14 14:56:01;;;;;;;3.58;1.40;;;;;;;;;;5093465;28;20036;-37
2022/06/14 14:58:32;;;;;;;5.65;1.55;;;;;;;;;;5093412;28;20420;-38
2022/06/14 15:06:44;;;;;;;4.25;1.35;;;;;;;;;;5093314;28;20042;-38
2022/06/14 15:09:23;;;;;;;5.50;1.70;;;;;;;;;;5093440;28;20028;-38
2022/06/14 15:11:55;;;;;;;7.32;1.70;;;;;;;;;;5093078;28;20031;-38
2022/06/14 15:14:23;;;;;;;6.75;1.75;;;;;;;;;;5093049;28;20040;-38
2022/06/14 15:19:57;;;;;;;5.57;1.58;;;;;;;;;;5093158;28;20143;-38
2022/06/14 15:22:34;;;;;;;2.92;1.70;;;;;;;;;;5093151;28;20024;-39
2022/06/14 15:25:05;;;;;;;11.57;1.80;;;;;;;;;;5093007;28;20077;-38
2022/06/14 15:27:35;;;;;;;4.70;1.75;;;;;;;;;;5093077;28;20374;-38
2022/06/14 15:30:01;;;;;;;10.10;2.13;;;;;;;;;;5093047;28;20016;-39
2022/06/14 15:32:28;;;;;;;4.25;1.55;;;;;;;;;;5093002;28;20023;-38
2022/06/14 15:34:54;;;;;;;5.53;1.83;;;;;;;;;;5092466;28;20058;-39
2022/06/14 15:37:25;;;;;;;11.50;1.60;;;;;;;;;;5089833;28;20024;-41
2022/06/14 15:39:55;;;;;;;3.00;1.35;;;;;;;;;;5054353;28;20020;-37
2022/06/14 15:42:23;;;;;;;4.18;1.55;;;;;;;;;;5072315;28;20395;-37